Terminal Aerodrome Forecast
Issued by NWS

Home | Current Version | Previous Version | Text Only | Print | Product List | Glossary On
Versions: 1 2 3 4 5 6 7 8 9 10 11 12 13 14 15 16 17 18 19 20
000
FTAK31 PAFA 270528
TAFAMC
TAF
PAMC 270528Z 2706/2806 23003KT P6SM OVC050
     FM271000 21004KT 2SM -SN OVC015
     FM271600 24010G16KT 1 1/2SM -SN BR OVC015
     FM280500 28009KT 4SM -SN BR OVC025=

USA.gov is the U.S. government's official web portal to all federal, state and local government web resources and services.